sensor_id;sensor_type;location;lat;lon;timestamp;P1;durP1;ratioP1;P2;durP2;ratioP2
6095;SDS011;25081;42.698;23.298;2023-05-16T00:01:47;19.13;;;15.67;;
6095;SDS011;25081;42.698;23.298;2023-05-16T00:03:58;17.13;;;13.30;;
6095;SDS011;25081;42.698;23.298;2023-05-16T00:06:08;18.17;;;15.73;;
6095;SDS011;25081;42.698;23.298;2023-05-16T00:08:19;18.87;;;15.50;;
6095;SDS011;25081;42.698;23.298;2023-05-16T00:10:29;18.97;;;14.00;;
6095;SDS011;25081;42.698;23.298;2023-05-16T00:12:40;21.30;;;14.20;;
6095;SDS011;25081;42.698;23.298;2023-05-16T00:14:50;17.27;;;13.93;;
6095;SDS011;25081;42.698;23.298;2023-05-16T00:17:00;17.20;;;15.07;;
6095;SDS011;25081;42.698;23.298;2023-05-16T00:19:11;20.73;;;14.77;;
6095;SDS011;25081;42.698;23.298;2023-05-16T00:21:21;17.57;;;13.87;;
6095;SDS011;25081;42.698;23.298;2023-05-16T00:23:32;20.47;;;14.90;;
6095;SDS011;25081;42.698;23.298;2023-05-16T00:25:43;17.93;;;14.57;;
6095;SDS011;25081;42.698;23.298;2023-05-16T00:27:54;21.43;;;15.20;;
6095;SDS011;25081;42.698;23.298;2023-05-16T00:30:05;17.67;;;13.87;;
6095;SDS011;25081;42.698;23.298;2023-05-16T00:32:17;20.83;;;15.77;;
6095;SDS011;25081;42.698;23.298;2023-05-16T00:34:27;20.20;;;15.63;;
6095;SDS011;25081;42.698;23.298;2023-05-16T00:36:37;26.63;;;21.47;;
6095;SDS011;25081;42.698;23.298;2023-05-16T00:38:48;15.90;;;14.17;;
6095;SDS011;25081;42.698;23.298;2023-05-16T00:40:58;19.40;;;15.40;;
6095;SDS011;25081;42.698;23.298;2023-05-16T00:43:09;17.90;;;15.77;;
6095;SDS011;25081;42.698;23.298;2023-05-16T00:45:19;16.80;;;13.50;;
6095;SDS011;25081;42.698;23.298;2023-05-16T00:47:30;20.00;;;13.93;;
6095;SDS011;25081;42.698;23.298;2023-05-16T00:49:40;19.10;;;15.70;;
6095;SDS011;25081;42.698;23.298;2023-05-16T00:51:51;19.90;;;15.50;;
6095;SDS011;25081;42.698;23.298;2023-05-16T00:54:01;20.40;;;16.70;;
6095;SDS011;25081;42.698;23.298;2023-05-16T00:56:12;19.83;;;14.43;;
6095;SDS011;25081;42.698;23.298;2023-05-16T00:58:22;18.50;;;14.50;;
6095;SDS011;25081;42.698;23.298;2023-05-16T01:00:33;17.67;;;14.60;;
6095;SDS011;25081;42.698;23.298;2023-05-16T01:02:44;18.90;;;15.13;;
6095;SDS011;25081;42.698;23.298;2023-05-16T01:04:54;20.33;;;15.23;;
6095;SDS011;25081;42.698;23.298;2023-05-16T01:07:05;17.87;;;14.53;;
6095;SDS011;25081;42.698;23.298;2023-05-16T01:09:15;17.13;;;14.20;;
6095;SDS011;25081;42.698;23.298;2023-05-16T01:11:27;17.30;;;14.40;;
6095;SDS011;25081;42.698;23.298;2023-05-16T01:13:40;18.10;;;14.00;;
6095;SDS011;25081;42.698;23.298;2023-05-16T01:15:53;16.47;;;14.00;;
6095;SDS011;25081;42.698;23.298;2023-05-16T01:18:02;16.93;;;15.10;;
6095;SDS011;25081;42.698;23.298;2023-05-16T01:20:15;17.40;;;14.20;;
6095;SDS011;25081;42.698;23.298;2023-05-16T01:22:29;18.07;;;14.40;;
6095;SDS011;25081;42.698;23.298;2023-05-16T01:24:43;17.07;;;13.30;;
6095;SDS011;25081;42.698;23.298;2023-05-16T01:26:50;18.73;;;15.23;;
6095;SDS011;25081;42.698;23.298;2023-05-16T01:29:01;18.00;;;15.17;;
6095;SDS011;25081;42.698;23.298;2023-05-16T01:31:11;20.23;;;14.20;;
6095;SDS011;25081;42.698;23.298;2023-05-16T01:33:21;23.40;;;14.77;;
6095;SDS011;25081;42.698;23.298;2023-05-16T01:35:32;18.90;;;14.83;;
6095;SDS011;25081;42.698;23.298;2023-05-16T01:37:43;18.30;;;14.63;;
6095;SDS011;25081;42.698;23.298;2023-05-16T01:39:55;19.20;;;15.27;;
6095;SDS011;25081;42.698;23.298;2023-05-16T01:42:06;17.77;;;15.17;;
6095;SDS011;25081;42.698;23.298;2023-05-16T01:44:18;19.87;;;15.90;;
6095;SDS011;25081;42.698;23.298;2023-05-16T01:46:30;20.03;;;15.83;;
6095;SDS011;25081;42.698;23.298;2023-05-16T01:48:42;19.33;;;16.17;;
6095;SDS011;25081;42.698;23.298;2023-05-16T01:50:53;18.90;;;15.00;;
6095;SDS011;25081;42.698;23.298;2023-05-16T01:53:05;18.57;;;14.67;;
6095;SDS011;25081;42.698;23.298;2023-05-16T01:55:15;19.20;;;15.10;;
6095;SDS011;25081;42.698;23.298;2023-05-16T01:57:25;15.53;;;13.30;;
6095;SDS011;25081;42.698;23.298;2023-05-16T01:59:35;16.70;;;12.60;;
6095;SDS011;25081;42.698;23.298;2023-05-16T02:01:46;14.67;;;12.00;;
6095;SDS011;25081;42.698;23.298;2023-05-16T02:03:57;15.20;;;11.50;;
6095;SDS011;25081;42.698;23.298;2023-05-16T02:06:07;11.63;;;8.50;;
6095;SDS011;25081;42.698;23.298;2023-05-16T02:08:17;17.00;;;11.87;;
6095;SDS011;25081;42.698;23.298;2023-05-16T02:10:28;14.97;;;12.90;;
6095;SDS011;25081;42.698;23.298;2023-05-16T02:12:39;14.83;;;10.77;;
6095;SDS011;25081;42.698;23.298;2023-05-16T02:14:49;15.70;;;11.40;;
6095;SDS011;25081;42.698;23.298;2023-05-16T02:17:01;15.83;;;13.77;;
6095;SDS011;25081;42.698;23.298;2023-05-16T02:19:11;17.83;;;12.93;;
6095;SDS011;25081;42.698;23.298;2023-05-16T02:21:22;16.00;;;14.10;;
6095;SDS011;25081;42.698;23.298;2023-05-16T02:23:33;17.97;;;14.93;;
6095;SDS011;25081;42.698;23.298;2023-05-16T02:25:43;15.07;;;12.97;;
6095;SDS011;25081;42.698;23.298;2023-05-16T02:27:54;23.57;;;17.50;;
6095;SDS011;25081;42.698;23.298;2023-05-16T02:30:05;15.20;;;11.73;;
6095;SDS011;25081;42.698;23.298;2023-05-16T02:32:19;17.50;;;11.73;;
6095;SDS011;25081;42.698;23.298;2023-05-16T02:34:30;17.53;;;13.10;;
6095;SDS011;25081;42.698;23.298;2023-05-16T02:36:40;18.90;;;13.93;;
6095;SDS011;25081;42.698;23.298;2023-05-16T02:38:50;14.53;;;12.70;;
6095;SDS011;25081;42.698;23.298;2023-05-16T02:41:01;15.17;;;13.57;;
6095;SDS011;25081;42.698;23.298;2023-05-16T02:43:12;14.13;;;11.90;;
6095;SDS011;25081;42.698;23.298;2023-05-16T02:45:22;17.80;;;12.30;;
6095;SDS011;25081;42.698;23.298;2023-05-16T02:47:32;14.40;;;11.80;;
6095;SDS011;25081;42.698;23.298;2023-05-16T02:49:43;13.87;;;11.90;;
6095;SDS011;25081;42.698;23.298;2023-05-16T02:51:53;14.37;;;11.63;;
6095;SDS011;25081;42.698;23.298;2023-05-16T02:54:05;14.47;;;11.23;;
6095;SDS011;25081;42.698;23.298;2023-05-16T02:56:15;15.20;;;10.90;;
6095;SDS011;25081;42.698;23.298;2023-05-16T02:58:26;13.93;;;10.63;;
6095;SDS011;25081;42.698;23.298;2023-05-16T03:00:36;16.10;;;12.30;;
6095;SDS011;25081;42.698;23.298;2023-05-16T03:02:47;13.90;;;10.53;;
6095;SDS011;25081;42.698;23.298;2023-05-16T03:04:57;13.73;;;11.23;;
6095;SDS011;25081;42.698;23.298;2023-05-16T03:07:08;15.57;;;12.97;;
6095;SDS011;25081;42.698;23.298;2023-05-16T03:09:18;14.40;;;11.90;;
6095;SDS011;25081;42.698;23.298;2023-05-16T03:11:28;16.33;;;10.60;;
6095;SDS011;25081;42.698;23.298;2023-05-16T03:13:39;13.40;;;10.33;;
6095;SDS011;25081;42.698;23.298;2023-05-16T03:15:49;13.30;;;11.20;;
6095;SDS011;25081;42.698;23.298;2023-05-16T03:18:00;22.77;;;14.10;;
6095;SDS011;25081;42.698;23.298;2023-05-16T03:20:11;16.60;;;12.17;;
6095;SDS011;25081;42.698;23.298;2023-05-16T03:22:22;13.30;;;10.70;;
6095;SDS011;25081;42.698;23.298;2023-05-16T03:24:32;14.03;;;11.50;;
6095;SDS011;25081;42.698;23.298;2023-05-16T03:26:43;12.40;;;11.03;;
6095;SDS011;25081;42.698;23.298;2023-05-16T03:28:53;16.47;;;12.27;;
6095;SDS011;25081;42.698;23.298;2023-05-16T03:31:04;15.87;;;13.00;;
6095;SDS011;25081;42.698;23.298;2023-05-16T03:33:14;17.50;;;12.50;;
6095;SDS011;25081;42.698;23.298;2023-05-16T03:35:25;19.30;;;14.10;;
6095;SDS011;25081;42.698;23.298;2023-05-16T03:37:36;31.10;;;23.00;;
6095;SDS011;25081;42.698;23.298;2023-05-16T03:39:46;74.80;;;53.37;;
6095;SDS011;25081;42.698;23.298;2023-05-16T03:41:56;24.73;;;19.80;;
6095;SDS011;25081;42.698;23.298;2023-05-16T03:44:07;22.40;;;14.50;;
6095;SDS011;25081;42.698;23.298;2023-05-16T03:46:17;22.33;;;15.30;;
6095;SDS011;25081;42.698;23.298;2023-05-16T03:48:28;19.00;;;15.13;;
6095;SDS011;25081;42.698;23.298;2023-05-16T03:50:38;21.93;;;14.60;;
6095;SDS011;25081;42.698;23.298;2023-05-16T03:52:49;23.90;;;14.90;;
6095;SDS011;25081;42.698;23.298;2023-05-16T03:55:00;26.93;;;16.03;;
6095;SDS011;25081;42.698;23.298;2023-05-16T03:57:10;24.73;;;16.70;;
6095;SDS011;25081;42.698;23.298;2023-05-16T03:59:20;21.47;;;15.07;;
6095;SDS011;25081;42.698;23.298;2023-05-16T04:01:31;22.10;;;16.00;;
6095;SDS011;25081;42.698;23.298;2023-05-16T04:03:41;27.73;;;16.83;;
6095;SDS011;25081;42.698;23.298;2023-05-16T04:05:52;16.63;;;13.27;;
6095;SDS011;25081;42.698;23.298;2023-05-16T04:08:03;16.53;;;13.03;;
6095;SDS011;25081;42.698;23.298;2023-05-16T04:10:14;15.70;;;11.40;;
6095;SDS011;25081;42.698;23.298;2023-05-16T04:12:24;16.60;;;12.63;;
6095;SDS011;25081;42.698;23.298;2023-05-16T04:14:35;17.73;;;13.87;;
6095;SDS011;25081;42.698;23.298;2023-05-16T04:16:45;14.20;;;12.60;;
6095;SDS011;25081;42.698;23.298;2023-05-16T04:18:56;14.73;;;12.03;;
6095;SDS011;25081;42.698;23.298;2023-05-16T04:21:06;14.97;;;11.30;;
6095;SDS011;25081;42.698;23.298;2023-05-16T04:23:17;16.57;;;12.37;;
6095;SDS011;25081;42.698;23.298;2023-05-16T04:25:27;16.90;;;12.20;;
6095;SDS011;25081;42.698;23.298;2023-05-16T04:27:38;17.90;;;12.17;;
6095;SDS011;25081;42.698;23.298;2023-05-16T04:29:49;15.83;;;11.13;;
6095;SDS011;25081;42.698;23.298;2023-05-16T04:31:59;16.20;;;10.40;;
6095;SDS011;25081;42.698;23.298;2023-05-16T04:34:10;15.20;;;12.90;;
6095;SDS011;25081;42.698;23.298;2023-05-16T04:36:21;17.13;;;12.40;;
6095;SDS011;25081;42.698;23.298;2023-05-16T04:38:31;17.00;;;13.27;;
6095;SDS011;25081;42.698;23.298;2023-05-16T04:40:42;14.80;;;11.70;;
6095;SDS011;25081;42.698;23.298;2023-05-16T04:42:52;16.13;;;11.90;;
6095;SDS011;25081;42.698;23.298;2023-05-16T04:45:03;16.20;;;12.23;;
6095;SDS011;25081;42.698;23.298;2023-05-16T04:47:15;19.57;;;11.77;;
6095;SDS011;25081;42.698;23.298;2023-05-16T04:49:25;18.07;;;12.40;;
6095;SDS011;25081;42.698;23.298;2023-05-16T04:51:36;23.30;;;13.77;;
6095;SDS011;25081;42.698;23.298;2023-05-16T04:53:46;17.23;;;12.70;;
6095;SDS011;25081;42.698;23.298;2023-05-16T04:55:57;20.23;;;13.27;;
6095;SDS011;25081;42.698;23.298;2023-05-16T04:58:07;17.47;;;13.20;;
6095;SDS011;25081;42.698;23.298;2023-05-16T05:00:18;17.67;;;12.23;;
6095;SDS011;25081;42.698;23.298;2023-05-16T05:02:29;16.70;;;13.13;;
6095;SDS011;25081;42.698;23.298;2023-05-16T05:04:39;17.20;;;12.40;;
6095;SDS011;25081;42.698;23.298;2023-05-16T05:06:50;15.27;;;12.50;;
6095;SDS011;25081;42.698;23.298;2023-05-16T05:09:00;13.93;;;12.27;;
6095;SDS011;25081;42.698;23.298;2023-05-16T05:11:10;16.30;;;12.07;;
6095;SDS011;25081;42.698;23.298;2023-05-16T05:13:21;14.63;;;11.30;;
6095;SDS011;25081;42.698;23.298;2023-05-16T05:15:32;16.20;;;12.13;;
6095;SDS011;25081;42.698;23.298;2023-05-16T05:17:42;14.30;;;11.10;;
6095;SDS011;25081;42.698;23.298;2023-05-16T05:19:52;18.63;;;12.27;;
6095;SDS011;25081;42.698;23.298;2023-05-16T05:22:03;14.47;;;11.67;;
6095;SDS011;25081;42.698;23.298;2023-05-16T05:24:14;17.87;;;10.20;;
6095;SDS011;25081;42.698;23.298;2023-05-16T05:26:24;18.30;;;13.00;;
6095;SDS011;25081;42.698;23.298;2023-05-16T05:28:35;19.10;;;14.03;;
6095;SDS011;25081;42.698;23.298;2023-05-16T05:30:45;19.77;;;13.63;;
6095;SDS011;25081;42.698;23.298;2023-05-16T05:32:56;23.63;;;13.10;;
6095;SDS011;25081;42.698;23.298;2023-05-16T05:35:07;13.10;;;11.47;;
6095;SDS011;25081;42.698;23.298;2023-05-16T05:37:18;18.30;;;12.90;;
6095;SDS011;25081;42.698;23.298;2023-05-16T05:39:28;15.77;;;12.90;;
6095;SDS011;25081;42.698;23.298;2023-05-16T05:41:39;25.63;;;14.53;;
6095;SDS011;25081;42.698;23.298;2023-05-16T05:43:49;18.63;;;11.60;;
6095;SDS011;25081;42.698;23.298;2023-05-16T05:45:59;21.87;;;14.63;;
6095;SDS011;25081;42.698;23.298;2023-05-16T05:48:10;17.57;;;13.50;;
6095;SDS011;25081;42.698;23.298;2023-05-16T05:50:20;18.30;;;13.20;;
6095;SDS011;25081;42.698;23.298;2023-05-16T05:52:31;18.67;;;12.60;;
6095;SDS011;25081;42.698;23.298;2023-05-16T05:54:41;17.00;;;12.87;;
6095;SDS011;25081;42.698;23.298;2023-05-16T05:56:52;17.03;;;12.70;;
6095;SDS011;25081;42.698;23.298;2023-05-16T05:59:02;22.13;;;12.47;;
6095;SDS011;25081;42.698;23.298;2023-05-16T06:01:13;14.43;;;11.93;;
6095;SDS011;25081;42.698;23.298;2023-05-16T06:03:23;16.40;;;12.43;;
6095;SDS011;25081;42.698;23.298;2023-05-16T06:05:33;19.37;;;11.00;;
6095;SDS011;25081;42.698;23.298;2023-05-16T06:07:44;16.20;;;11.60;;
6095;SDS011;25081;42.698;23.298;2023-05-16T06:09:54;16.27;;;11.40;;
6095;SDS011;25081;42.698;23.298;2023-05-16T06:12:06;16.93;;;12.23;;
6095;SDS011;25081;42.698;23.298;2023-05-16T06:14:17;20.47;;;13.07;;
6095;SDS011;25081;42.698;23.298;2023-05-16T06:16:27;17.40;;;12.30;;
6095;SDS011;25081;42.698;23.298;2023-05-16T06:18:38;16.80;;;11.73;;
6095;SDS011;25081;42.698;23.298;2023-05-16T06:20:48;23.77;;;13.30;;
6095;SDS011;25081;42.698;23.298;2023-05-16T06:23:00;20.50;;;12.40;;
6095;SDS011;25081;42.698;23.298;2023-05-16T06:25:09;17.23;;;13.17;;
6095;SDS011;25081;42.698;23.298;2023-05-16T06:27:19;17.03;;;11.63;;
6095;SDS011;25081;42.698;23.298;2023-05-16T06:29:30;15.27;;;11.83;;
6095;SDS011;25081;42.698;23.298;2023-05-16T06:31:40;15.43;;;12.27;;
6095;SDS011;25081;42.698;23.298;2023-05-16T06:33:51;19.63;;;12.20;;
6095;SDS011;25081;42.698;23.298;2023-05-16T06:36:01;12.93;;;11.00;;
6095;SDS011;25081;42.698;23.298;2023-05-16T06:38:12;14.27;;;9.43;;
6095;SDS011;25081;42.698;23.298;2023-05-16T06:40:23;14.80;;;11.43;;
6095;SDS011;25081;42.698;23.298;2023-05-16T06:42:33;15.60;;;11.50;;
6095;SDS011;25081;42.698;23.298;2023-05-16T06:44:44;16.60;;;11.83;;
6095;SDS011;25081;42.698;23.298;2023-05-16T06:46:55;16.30;;;10.70;;
6095;SDS011;25081;42.698;23.298;2023-05-16T06:49:05;19.80;;;13.20;;
6095;SDS011;25081;42.698;23.298;2023-05-16T06:51:16;12.57;;;10.27;;
6095;SDS011;25081;42.698;23.298;2023-05-16T06:53:27;15.90;;;10.77;;
6095;SDS011;25081;42.698;23.298;2023-05-16T06:55:37;9.80;;;7.43;;
6095;SDS011;25081;42.698;23.298;2023-05-16T06:57:48;13.23;;;10.87;;
6095;SDS011;25081;42.698;23.298;2023-05-16T06:59:58;15.40;;;10.40;;
6095;SDS011;25081;42.698;23.298;2023-05-16T07:02:09;12.63;;;10.57;;
6095;SDS011;25081;42.698;23.298;2023-05-16T07:04:19;20.53;;;10.97;;
6095;SDS011;25081;42.698;23.298;2023-05-16T07:06:30;15.40;;;10.63;;
6095;SDS011;25081;42.698;23.298;2023-05-16T07:08:40;12.50;;;8.37;;
6095;SDS011;25081;42.698;23.298;2023-05-16T07:10:51;15.70;;;11.07;;
6095;SDS011;25081;42.698;23.298;2023-05-16T07:13:01;18.20;;;10.97;;
6095;SDS011;25081;42.698;23.298;2023-05-16T07:15:12;13.90;;;9.40;;
6095;SDS011;25081;42.698;23.298;2023-05-16T07:17:23;14.43;;;8.37;;
6095;SDS011;25081;42.698;23.298;2023-05-16T07:19:33;15.63;;;10.70;;
6095;SDS011;25081;42.698;23.298;2023-05-16T07:21:44;15.30;;;10.73;;
6095;SDS011;25081;42.698;23.298;2023-05-16T07:23:54;10.63;;;8.27;;
6095;SDS011;25081;42.698;23.298;2023-05-16T07:26:05;10.07;;;8.13;;
6095;SDS011;25081;42.698;23.298;2023-05-16T07:28:15;9.57;;;5.70;;
6095;SDS011;25081;42.698;23.298;2023-05-16T07:30:26;10.20;;;8.23;;
6095;SDS011;25081;42.698;23.298;2023-05-16T07:32:37;11.87;;;9.00;;
6095;SDS011;25081;42.698;23.298;2023-05-16T07:34:47;10.43;;;5.80;;
6095;SDS011;25081;42.698;23.298;2023-05-16T07:36:58;9.53;;;5.60;;
6095;SDS011;25081;42.698;23.298;2023-05-16T07:39:08;12.93;;;7.50;;
6095;SDS011;25081;42.698;23.298;2023-05-16T07:41:19;14.17;;;7.50;;
6095;SDS011;25081;42.698;23.298;2023-05-16T07:43:29;9.83;;;6.90;;
6095;SDS011;25081;42.698;23.298;2023-05-16T07:45:40;7.80;;;5.33;;
6095;SDS011;25081;42.698;23.298;2023-05-16T07:47:50;9.77;;;6.37;;
6095;SDS011;25081;42.698;23.298;2023-05-16T07:50:01;6.07;;;4.80;;
6095;SDS011;25081;42.698;23.298;2023-05-16T07:52:11;14.37;;;9.77;;
6095;SDS011;25081;42.698;23.298;2023-05-16T07:54:22;10.10;;;6.53;;
6095;SDS011;25081;42.698;23.298;2023-05-16T07:56:33;12.00;;;7.13;;
6095;SDS011;25081;42.698;23.298;2023-05-16T07:58:43;140.17;;;19.77;;
6095;SDS011;25081;42.698;23.298;2023-05-16T08:00:54;9.33;;;6.70;;
6095;SDS011;25081;42.698;23.298;2023-05-16T08:03:04;7.00;;;5.47;;
6095;SDS011;25081;42.698;23.298;2023-05-16T08:05:15;8.47;;;5.63;;
6095;SDS011;25081;42.698;23.298;2023-05-16T08:07:26;6.00;;;4.40;;
6095;SDS011;25081;42.698;23.298;2023-05-16T08:09:36;15.37;;;9.70;;
6095;SDS011;25081;42.698;23.298;2023-05-16T08:11:47;16.57;;;9.90;;
6095;SDS011;25081;42.698;23.298;2023-05-16T08:13:57;12.03;;;7.50;;
6095;SDS011;25081;42.698;23.298;2023-05-16T08:16:08;12.97;;;9.53;;
6095;SDS011;25081;42.698;23.298;2023-05-16T08:18:18;9.57;;;6.93;;
6095;SDS011;25081;42.698;23.298;2023-05-16T08:20:30;6.10;;;4.53;;
6095;SDS011;25081;42.698;23.298;2023-05-16T08:22:40;17.27;;;7.80;;
6095;SDS011;25081;42.698;23.298;2023-05-16T08:24:51;7.33;;;5.47;;
6095;SDS011;25081;42.698;23.298;2023-05-16T08:27:03;16.47;;;9.63;;
6095;SDS011;25081;42.698;23.298;2023-05-16T08:29:14;8.40;;;6.10;;
6095;SDS011;25081;42.698;23.298;2023-05-16T08:31:25;12.10;;;9.50;;
6095;SDS011;25081;42.698;23.298;2023-05-16T08:33:35;8.33;;;5.90;;
6095;SDS011;25081;42.698;23.298;2023-05-16T08:35:46;8.27;;;6.07;;
6095;SDS011;25081;42.698;23.298;2023-05-16T08:37:56;14.10;;;8.00;;
6095;SDS011;25081;42.698;23.298;2023-05-16T08:40:08;15.63;;;9.70;;
6095;SDS011;25081;42.698;23.298;2023-05-16T08:42:18;14.33;;;9.00;;
6095;SDS011;25081;42.698;23.298;2023-05-16T08:44:29;9.50;;;7.50;;
6095;SDS011;25081;42.698;23.298;2023-05-16T08:46:39;10.57;;;7.60;;
6095;SDS011;25081;42.698;23.298;2023-05-16T08:48:50;11.30;;;7.90;;
6095;SDS011;25081;42.698;23.298;2023-05-16T08:51:01;10.17;;;5.57;;
6095;SDS011;25081;42.698;23.298;2023-05-16T08:53:11;16.53;;;8.53;;
6095;SDS011;25081;42.698;23.298;2023-05-16T08:55:22;6.57;;;5.63;;
6095;SDS011;25081;42.698;23.298;2023-05-16T08:57:33;8.37;;;5.53;;
6095;SDS011;25081;42.698;23.298;2023-05-16T08:59:45;11.80;;;6.73;;
6095;SDS011;25081;42.698;23.298;2023-05-16T09:01:56;5.37;;;3.87;;
6095;SDS011;25081;42.698;23.298;2023-05-16T09:04:07;6.37;;;4.67;;
6095;SDS011;25081;42.698;23.298;2023-05-16T09:06:17;8.30;;;5.07;;
6095;SDS011;25081;42.698;23.298;2023-05-16T09:08:27;6.40;;;5.30;;
6095;SDS011;25081;42.698;23.298;2023-05-16T09:10:38;10.23;;;6.50;;
6095;SDS011;25081;42.698;23.298;2023-05-16T09:12:48;10.03;;;7.50;;
6095;SDS011;25081;42.698;23.298;2023-05-16T09:14:59;14.70;;;8.17;;
6095;SDS011;25081;42.698;23.298;2023-05-16T09:17:10;12.60;;;8.40;;
6095;SDS011;25081;42.698;23.298;2023-05-16T09:19:21;9.70;;;8.00;;
6095;SDS011;25081;42.698;23.298;2023-05-16T09:21:32;11.23;;;7.30;;
6095;SDS011;25081;42.698;23.298;2023-05-16T09:23:42;13.60;;;5.87;;
6095;SDS011;25081;42.698;23.298;2023-05-16T09:25:53;10.60;;;8.40;;
6095;SDS011;25081;42.698;23.298;2023-05-16T09:28:03;13.27;;;6.10;;
6095;SDS011;25081;42.698;23.298;2023-05-16T09:30:15;12.17;;;7.73;;
6095;SDS011;25081;42.698;23.298;2023-05-16T09:32:25;15.60;;;8.37;;
6095;SDS011;25081;42.698;23.298;2023-05-16T09:34:38;7.70;;;5.43;;
6095;SDS011;25081;42.698;23.298;2023-05-16T09:36:50;14.83;;;8.80;;
6095;SDS011;25081;42.698;23.298;2023-05-16T09:39:04;15.20;;;7.30;;
6095;SDS011;25081;42.698;23.298;2023-05-16T09:41:14;9.20;;;7.23;;
6095;SDS011;25081;42.698;23.298;2023-05-16T09:43:25;9.83;;;5.40;;
6095;SDS011;25081;42.698;23.298;2023-05-16T09:45:35;12.27;;;8.03;;
6095;SDS011;25081;42.698;23.298;2023-05-16T09:47:46;7.90;;;6.10;;
6095;SDS011;25081;42.698;23.298;2023-05-16T09:49:56;7.40;;;4.87;;
6095;SDS011;25081;42.698;23.298;2023-05-16T09:52:07;10.33;;;7.47;;
6095;SDS011;25081;42.698;23.298;2023-05-16T09:54:29;7.80;;;5.97;;
6095;SDS011;25081;42.698;23.298;2023-05-16T09:56:48;6.90;;;5.33;;
6095;SDS011;25081;42.698;23.298;2023-05-16T09:58:59;9.80;;;5.97;;
6095;SDS011;25081;42.698;23.298;2023-05-16T10:01:09;9.20;;;5.47;;
6095;SDS011;25081;42.698;23.298;2023-05-16T10:03:19;8.77;;;4.70;;
6095;SDS011;25081;42.698;23.298;2023-05-16T10:05:30;12.30;;;7.03;;
6095;SDS011;25081;42.698;23.298;2023-05-16T10:07:41;10.40;;;8.27;;
6095;SDS011;25081;42.698;23.298;2023-05-16T10:09:52;12.03;;;8.50;;
6095;SDS011;25081;42.698;23.298;2023-05-16T10:12:03;8.50;;;6.67;;
6095;SDS011;25081;42.698;23.298;2023-05-16T10:14:14;8.37;;;7.17;;
6095;SDS011;25081;42.698;23.298;2023-05-16T10:16:25;11.00;;;6.97;;
6095;SDS011;25081;42.698;23.298;2023-05-16T10:18:37;9.97;;;5.83;;
6095;SDS011;25081;42.698;23.298;2023-05-16T10:20:48;8.13;;;3.77;;
6095;SDS011;25081;42.698;23.298;2023-05-16T10:22:58;6.37;;;4.50;;
6095;SDS011;25081;42.698;23.298;2023-05-16T10:25:11;8.50;;;5.93;;
6095;SDS011;25081;42.698;23.298;2023-05-16T10:27:20;9.60;;;4.63;;
6095;SDS011;25081;42.698;23.298;2023-05-16T10:29:31;10.97;;;6.83;;
6095;SDS011;25081;42.698;23.298;2023-05-16T10:31:41;8.00;;;7.20;;
6095;SDS011;25081;42.698;23.298;2023-05-16T10:33:52;8.37;;;7.50;;
6095;SDS011;25081;42.698;23.298;2023-05-16T10:36:03;8.97;;;5.57;;
6095;SDS011;25081;42.698;23.298;2023-05-16T10:38:15;11.70;;;8.57;;
6095;SDS011;25081;42.698;23.298;2023-05-16T10:40:25;10.50;;;8.40;;
6095;SDS011;25081;42.698;23.298;2023-05-16T10:42:35;7.47;;;4.73;;
6095;SDS011;25081;42.698;23.298;2023-05-16T10:44:46;7.47;;;5.80;;
6095;SDS011;25081;42.698;23.298;2023-05-16T10:46:58;14.13;;;9.30;;
6095;SDS011;25081;42.698;23.298;2023-05-16T10:49:21;14.93;;;8.10;;
6095;SDS011;25081;42.698;23.298;2023-05-16T10:51:35;14.27;;;8.60;;
6095;SDS011;25081;42.698;23.298;2023-05-16T10:53:46;10.23;;;8.70;;
6095;SDS011;25081;42.698;23.298;2023-05-16T10:56:10;10.40;;;8.33;;
6095;SDS011;25081;42.698;23.298;2023-05-16T10:58:23;13.40;;;9.13;;
6095;SDS011;25081;42.698;23.298;2023-05-16T11:00:34;13.50;;;10.13;;
6095;SDS011;25081;42.698;23.298;2023-05-16T11:02:44;13.33;;;8.60;;
6095;SDS011;25081;42.698;23.298;2023-05-16T11:04:55;9.30;;;5.83;;
6095;SDS011;25081;42.698;23.298;2023-05-16T11:07:05;14.03;;;8.40;;
6095;SDS011;25081;42.698;23.298;2023-05-16T11:09:20;15.60;;;9.00;;
6095;SDS011;25081;42.698;23.298;2023-05-16T11:11:40;15.17;;;7.83;;
6095;SDS011;25081;42.698;23.298;2023-05-16T11:13:54;10.60;;;8.00;;
6095;SDS011;25081;42.698;23.298;2023-05-16T11:19:04;11.60;;;8.87;;
6095;SDS011;25081;42.698;23.298;2023-05-16T11:21:14;14.57;;;9.70;;
6095;SDS011;25081;42.698;23.298;2023-05-16T11:23:25;14.13;;;10.67;;
6095;SDS011;25081;42.698;23.298;2023-05-16T11:25:35;13.47;;;9.77;;
6095;SDS011;25081;42.698;23.298;2023-05-16T11:27:46;15.10;;;10.50;;
6095;SDS011;25081;42.698;23.298;2023-05-16T11:30:00;13.07;;;9.93;;
6095;SDS011;25081;42.698;23.298;2023-05-16T11:32:11;13.83;;;9.30;;
6095;SDS011;25081;42.698;23.298;2023-05-16T11:34:21;17.73;;;10.97;;
6095;SDS011;25081;42.698;23.298;2023-05-16T11:36:32;14.83;;;10.83;;
6095;SDS011;25081;42.698;23.298;2023-05-16T11:38:42;15.83;;;10.13;;
6095;SDS011;25081;42.698;23.298;2023-05-16T11:40:53;12.30;;;9.63;;
6095;SDS011;25081;42.698;23.298;2023-05-16T11:43:04;13.80;;;9.57;;
6095;SDS011;25081;42.698;23.298;2023-05-16T11:45:15;13.30;;;10.23;;
6095;SDS011;25081;42.698;23.298;2023-05-16T11:47:25;12.07;;;9.13;;
6095;SDS011;25081;42.698;23.298;2023-05-16T11:49:35;14.87;;;9.67;;
6095;SDS011;25081;42.698;23.298;2023-05-16T11:51:46;16.60;;;9.80;;
6095;SDS011;25081;42.698;23.298;2023-05-16T11:53:57;12.20;;;9.27;;
6095;SDS011;25081;42.698;23.298;2023-05-16T11:56:08;14.47;;;11.07;;
6095;SDS011;25081;42.698;23.298;2023-05-16T11:58:18;10.77;;;9.33;;
6095;SDS011;25081;42.698;23.298;2023-05-16T12:00:29;18.97;;;11.20;;
6095;SDS011;25081;42.698;23.298;2023-05-16T12:02:39;14.57;;;10.17;;
6095;SDS011;25081;42.698;23.298;2023-05-16T12:04:50;14.23;;;9.30;;
6095;SDS011;25081;42.698;23.298;2023-05-16T12:07:01;16.10;;;8.57;;
6095;SDS011;25081;42.698;23.298;2023-05-16T12:09:12;12.70;;;9.10;;
6095;SDS011;25081;42.698;23.298;2023-05-16T12:11:22;14.43;;;8.97;;
6095;SDS011;25081;42.698;23.298;2023-05-16T12:13:33;13.27;;;8.33;;
6095;SDS011;25081;42.698;23.298;2023-05-16T12:15:43;15.93;;;9.20;;
6095;SDS011;25081;42.698;23.298;2023-05-16T12:17:54;15.00;;;9.03;;
6095;SDS011;25081;42.698;23.298;2023-05-16T12:20:06;11.90;;;8.30;;
6095;SDS011;25081;42.698;23.298;2023-05-16T12:22:18;11.30;;;7.97;;
6095;SDS011;25081;42.698;23.298;2023-05-16T12:24:31;15.20;;;8.50;;
6095;SDS011;25081;42.698;23.298;2023-05-16T12:26:42;9.50;;;6.97;;
6095;SDS011;25081;42.698;23.298;2023-05-16T12:28:53;12.03;;;7.57;;
6095;SDS011;25081;42.698;23.298;2023-05-16T12:31:04;11.27;;;9.27;;
6095;SDS011;25081;42.698;23.298;2023-05-16T12:33:20;13.90;;;9.57;;
6095;SDS011;25081;42.698;23.298;2023-05-16T12:35:31;16.80;;;9.50;;
6095;SDS011;25081;42.698;23.298;2023-05-16T12:37:43;14.57;;;9.70;;
6095;SDS011;25081;42.698;23.298;2023-05-16T12:39:59;29.30;;;10.50;;
6095;SDS011;25081;42.698;23.298;2023-05-16T12:42:09;11.30;;;9.50;;
6095;SDS011;25081;42.698;23.298;2023-05-16T12:44:20;16.43;;;10.53;;
6095;SDS011;25081;42.698;23.298;2023-05-16T12:46:31;12.50;;;8.97;;
6095;SDS011;25081;42.698;23.298;2023-05-16T12:48:42;10.73;;;8.37;;
6095;SDS011;25081;42.698;23.298;2023-05-16T12:50:52;11.27;;;8.47;;
6095;SDS011;25081;42.698;23.298;2023-05-16T12:53:03;10.67;;;9.30;;
6095;SDS011;25081;42.698;23.298;2023-05-16T12:55:13;13.87;;;9.43;;